Weather at Kefallinia Airport

Public forecast

Using degrees Celsius for public forecast. Weather courtesy of forecast.io.

Current aviation weather report (METAR) for Kefallinia Airport

Report is more than 6 hours old.

2024/05/27 19:50 (retrieved 9 hours ago)

LGKF 271950Z 35009KT CAVOK 21/08 Q1015

Closest aviation forecast (TAF) to Kefallinia Airport

Forecast is more than 12 hours old.

Closest forecast is Crotone Airport, 169.0 nm (313.0 km) WNW.

2024/05/27 12:09 (retrieved 17 hours ago)

TAF TAF LIBC 271702Z 2712/2812 CNL